Abdul Afful

Olheiro - Hearts of Oak
2 Jul 2028
Domingo
Processo

Personalidade

Adaptabilidade (13) Ambição (19) Controvérsia (14) Lealdade (9) Pressão (4) Profissionalismo (19) Espírito Esportivo (1) Temperamento (14)

Perfil

Estilo de Treinamento Democrático
Licença Nacional A
Determinação 11
Gestão de Pessoas 9
Motivação 4
Disciplina 10
Satisfação no Trabalho
100%
Fadiga
0%
Função Olheiro
Salário 69.3K p/s
Contrato 14.03.2029

Desempenho

Comportamento Bom
Eficácia do Treinamento
36%
Desenvolvimento do Jogador
25%
Prevenção de Lesões
40%
Implementação Tática
20%

Eventos Recentes

Participou de uma reunião de recrutamento agora
Participou de uma reunião de recrutamento 7d atrás
Participou de uma reunião de recrutamento 7d atrás
Participou de uma reunião de recrutamento 7d atrás
Participou de uma reunião de recrutamento 7d atrás
Participou de uma reunião de recrutamento 14d atrás
Avaliou um jogador 14d atrás
Apresentou um dossiê à direção 14d atrás

Monitorando agora

79
Jogador Clube Status Habilidade Confiança Observado Última observação Último voto
Mohammed Essien Hasaacas Ativo 117 / 119 55% 1 19.06.2028 -
Denzel Hall Rotherham United Perdido 119 / 125 40% 1 13.06.2028 -
Alex Lowry Wycombe Wanderers Ativo 118 / 142 40% 1 13.06.2028 -
John McAtee Leyton Orient Ativo 132 / 101 40% 1 12.06.2028 -
Miles Leaburn Rotherham United Ativo 124 / 139 40% 1 12.06.2028 -
Etiosa Ighodaro Kaizer Chiefs Ativo 124 / 105 40% 1 02.06.2028 -
Dale Taylor Blackpool Ativo 105 / 134 40% 1 02.06.2028 -
Kwame Kudus Wa All Stars Ativo 85 / 80 55% 1 01.06.2028 -
Carlos Fernández Oviedo Ativo 148 / 128 40% 1 31.05.2028 -
Millar Matthews-Lewis Tranmere Rovers Ativo 94 / 96 40% 1 31.05.2028 -
Enrique Clemente Las Palmas Ativo 153 / 144 40% 1 31.05.2028 -
Aaron Collins Milton Keynes Dons Ativo 133 / 134 40% 4 28.05.2028 -
Brandon Thomas-Asante Blackpool Ativo 140 / 122 40% 1 28.05.2028 Mais informações
Omar Khedr Gillingham Ativo 111 / 102 40% 2 26.05.2028 -
Will Smallbone Crewe Alexandra Ativo 141 / 121 40% 1 26.05.2028 -
Sonny Carey Charlton Athletic Ativo 144 / 138 40% 1 25.05.2028 -
Joseph Hungbo Wigan Athletic Ativo 100 / 122 40% 1 25.05.2028 -
Calvin Ramsay Bristol Rovers Ativo 136 / 142 40% 3 24.05.2028 -
Ryan Longman Wrexham Ativo 134 / 118 40% 1 24.05.2028 -
Malcolm Ebiowei Gillingham Ativo 107 / 123 40% 1 23.05.2028 -
Marcus Browne AFC Wimbledon Ativo 115 / 97 40% 1 17.05.2028 -
Josh Tymon Swansea City Ativo 126 / 119 40% 1 17.05.2028 -
Paddy Lane Reading Ativo 110 / 108 40% 1 16.05.2028 -
Callum Lang Preston Ativo 124 / 119 40% 1 16.05.2028 -
Daniel Kyerewaa Reading Ativo 132 / 129 40% 2 15.05.2028 -
Victor Kristiansen Stevenage Ativo 129 / 137 40% 1 15.05.2028 -
Mohamadou Kanté Crawley Town Ativo 122 / 115 40% 1 14.05.2028 -
Connor Barrett Walsall Ativo 111 / 101 40% 1 14.05.2028 -
Lee Buchanan Sheffield Wednesday Ativo 118 / 117 40% 1 12.05.2028 -
Rúben Rodrigues Bolton Wanderers Perdido 136 / 108 40% 1 09.05.2028 -
Luke Thomas Barnsley Ativo 127 / 123 40% 1 06.05.2028 -
Reyes Cleary Bromley Ativo 136 / 114 40% 1 05.05.2028 -
Ar'jany Martha Rotherham United Ativo 127 / 106 40% 1 04.05.2028 -
Malik Mothersille Stockport County Ativo 140 / 120 40% 2 03.05.2028 -
Rocco Vata Watford Ativo 138 / 120 40% 1 03.05.2028 -
Ethan Williams Peterborough United Ativo 115 / 119 40% 1 29.04.2028 -
Adam Phillips Northampton Town Ativo 127 / 119 40% 1 29.04.2028 -
Tim Iroegbunam Peterborough United Ativo 159 / 162 40% 1 28.04.2028 -
Max Conway Bolton Wanderers Ativo 133 / 117 40% 1 28.04.2028 -
Mduduzi Shabalala Kaizer Chiefs Ativo 106 / 132 40% 3 27.04.2028 -
Stephen Humphrys Bradford City Ativo 109 / 122 40% 2 25.04.2028 -
Fred Onyedinma Huddersfield Town Ativo 103 / 116 40% 1 25.04.2028 -
Thierry Gale Swindon Town Ativo 106 / 114 40% 2 23.04.2028 -
Callum Wright Plymouth Argyle Ativo 126 / 120 40% 1 22.04.2028 -
Admir Bristrić Cambridge United Ativo 98 / 95 40% 1 21.04.2028 -
Michael Baidoo Plymouth Argyle Ativo 137 / 141 40% 1 21.04.2028 -
Abdoul Ouattara Port Vale Ativo 140 / 141 40% 1 20.04.2028 -
Olaf Kobacki Sheffield Wednesday Ativo 116 / 132 40% 1 20.04.2028 -
Nicolas Madsen Queens Park Rangers Ativo 148 / 119 40% 1 16.04.2028 -
Terry Taylor Charlton Athletic Ativo 112 / 115 40% 1 15.04.2028 -
Marvin Kaleta Rotherham United Ativo 109 / 105 40% 1 14.04.2028 -
Harry Anderson Bristol Rovers Ativo 93 / 120 40% 1 12.04.2028 -
Victor Torp Bristol Rovers Ativo 151 / 144 40% 1 12.04.2028 -
Daichi Kamada Luton Town Ativo 149 / 139 40% 1 11.04.2028 -
Matěj Jurásek Doncaster Rovers Ativo 112 / 109 40% 2 09.04.2028 -
Ante Crnac Bristol Rovers Ativo 141 / 138 40% 2 08.04.2028 -
Sydie Peck Swindon Town Ativo 146 / 151 40% 1 08.04.2028 -
Sam Mather Walsall Ativo 115 / 118 40% 1 07.04.2028 -
Dennis Cirkin Queens Park Rangers Ativo 132 / 140 40% 1 03.04.2028 -
Ben Woodburn Salford City Ativo 123 / 124 40% 1 03.04.2028 -
Thierry Small Preston Ativo 132 / 128 40% 1 02.04.2028 -
Ethan Galbraith Swansea City Ativo 155 / 143 40% 1 01.04.2028 -
Harrison Kudus WAFA Ativo 116 / 116 52% 1 / 1m 29.03.2028 Observar
Mark Sykes Millwall Ativo 144 / 107 40% 1 24.03.2028 -
Ibrahim Fullah Charlton Athletic Ativo 137 / 144 40% 1 24.03.2028 -
Mfundo Vilakazi Free State Stars Ativo 134 / 112 40% 2 23.03.2028 -
Ben Wiles Milton Keynes Dons Ativo 116 / 136 40% 1 23.03.2028 -
Kyreece Lisbie Colchester United Ativo 96 / 115 40% 1 22.03.2028 -
Henrik Meister Pisa Ativo 141 / 137 40% 1 22.03.2028 -
Jenson Metcalfe Bradford City Ativo 103 / 111 40% 1 19.03.2028 -
Asanele Velebayi Kaizer Chiefs Ativo 109 / 128 40% 1 18.03.2028 -
Jake Hollman Walsall Ativo 103 / 83 40% 1 17.03.2028 -
Juan David Rueda Alianza Petrolera Ativo 113 / 89 40% 1 31.12.2027 -
Paul Samson Plateau United Ativo 115 / 106 40% 1 31.12.2027 -
Daniel Awuni Aduana Stars Ativo 98 / 102 51% 1 12.07.2027 -
David Wakaso WAFA Ativo 103 / 106 52% 1 / 1m 30.12.2026 -
Ernest Addo WAFA Ativo 70 / 75 42% 1 / 1m 30.12.2026 -
Elliot Lee Wrexham Ativo 130 / 121 40% 1 01.08.2026 -
Louis Appéré Cambridge United Ativo 83 / 102 40% 1 01.08.2026 -